Terminal Aerodrome Forecast
Issued by NWS

Home | Current Version | Previous Version | Graphics & Text | Print | Product List | Glossary On
Versions: 1 2 3 4 5 6 7 8 9 10 11 12 13 14 15 16 17 18 19
000
FTUS43 KMPX 021737
TAFRNH
TAF
KRNH 021737Z 0218/0318 27012G20KT P6SM VCTS SCT025 BKN045CB OVC120
      TEMPO 0218/0219 BKN025CB
     FM022000 31015G23KT P6SM BKN045
     FM030100 32009KT P6SM FEW050
     FM030600 30005KT P6SM SKC
     FM031500 30012G18KT P6SM SKC=

USA.gov is the U.S. government's official web portal to all federal, state and local government web resources and services.